Porto-Novo, Benin
Current Conditions -  °F | °C
As of 9:00 AM on Monday 26 Jan 2015 (Local Time) from DBBB Reporting Station
Scattered Clouds Scattered Clouds  
Wind Chill: 82°   Ceiling: Unl
Heat Index: 92°   Visibility: 5mi
Dew Point: 79°   Wind: 6mph
Humidity: 89%   Direction: 230°SW
Pressure: 29.85"   Gusts: NA
Location:  6.48°N, 2.63°E
Report Text: DBBB 260800Z 23005KT 8000 SCT010 28/26 Q1011 NOSIG
Loading
Personal Weather Stations






























Interactive Weather Map New forecast layout! Learn more

10-Day Weather Forecast

Advertisements
Track Severe Weather on mobile